createdAt,value
2018-09-11T00:03:15.734Z,72.82
2018-09-11T00:08:19.349Z,73.12
2018-09-11T00:13:22.975Z,73.82
2018-09-11T00:18:33.401Z,73.71
2018-09-11T00:23:36.979Z,74.44
2018-09-11T00:28:40.584Z,74.19
2018-09-11T00:33:44.225Z,74.18
2018-09-11T00:38:48.062Z,74.28
2018-09-11T00:43:51.897Z,74.89
2018-09-11T00:48:55.443Z,74.38
2018-09-11T00:54:02.360Z,74.64
2018-09-11T00:59:06.278Z,75.92
2018-09-11T01:04:09.901Z,76.87
2018-09-11T01:09:13.651Z,77.13
2018-09-11T01:14:17.281Z,76.65
2018-09-11T01:19:21.086Z,76.75
2018-09-11T01:24:24.765Z,77.76
2018-09-11T01:29:28.751Z,78.24
2018-09-11T01:34:32.519Z,78.28
2018-09-11T01:39:36.172Z,78.53
2018-09-11T01:44:39.768Z,78.14
2018-09-11T01:49:43.626Z,78.46
2018-09-11T01:54:47.177Z,79.91
2018-09-11T01:59:50.960Z,79.94
2018-09-11T02:04:55.084Z,81.37
2018-09-11T02:09:58.901Z,81.46
2018-09-11T02:15:02.576Z,84.46
2018-09-11T02:20:06.252Z,83.99
2018-09-11T02:25:10.013Z,84.31
2018-09-11T02:30:15.313Z,85.29
2018-09-11T02:35:18.871Z,85.30
2018-09-11T02:40:22.469Z,86.30
2018-09-11T02:45:26.278Z,85.40
2018-09-11T02:50:29.873Z,85.64
2018-09-11T02:55:33.427Z,84.76
2018-09-11T03:00:37.220Z,84.23
2018-09-11T03:05:40.829Z,82.72
2018-09-11T03:10:44.372Z,82.88
2018-09-11T03:15:47.906Z,80.66
2018-09-11T03:20:51.805Z,79.71
2018-09-11T03:25:55.401Z,78.80
2018-09-11T03:30:58.933Z,77.85
2018-09-11T03:36:02.533Z,77.33
2018-09-11T03:41:06.175Z,75.96
2018-09-11T03:46:09.830Z,75.61
2018-09-11T03:51:13.532Z,76.77
2018-09-11T03:56:17.077Z,77.08
2018-09-11T04:01:20.867Z,77.57
2018-09-11T04:06:24.366Z,78.25
2018-09-11T04:11:27.983Z,78.42
2018-09-11T04:16:31.500Z,78.75
2018-09-11T04:21:35.089Z,80.17
2018-09-11T04:26:38.669Z,81.45
2018-09-11T04:31:42.269Z,81.77
2018-09-11T04:36:45.779Z,82.46
2018-09-11T04:41:49.336Z,81.98
2018-09-11T04:46:52.999Z,80.81
2018-09-11T04:51:56.618Z,79.41
2018-09-11T04:57:00.242Z,77.66
2018-09-11T05:02:03.987Z,77.95
2018-09-11T05:07:08.129Z,75.49
2018-09-11T05:12:12.036Z,75.27
2018-09-11T05:17:15.626Z,75.74
2018-09-11T05:22:19.136Z,76.19
2018-09-11T05:27:22.754Z,75.58
2018-09-11T05:32:26.332Z,75.06
2018-09-11T05:37:29.893Z,74.63
2018-09-11T05:42:33.500Z,74.90
2018-09-11T05:47:37.210Z,73.64
2018-09-11T05:52:41.257Z,73.89
2018-09-11T05:57:44.824Z,72.39
2018-09-11T06:02:48.894Z,72.16
2018-09-11T06:07:52.449Z,72.82
2018-09-11T06:12:56.194Z,72.34
2018-09-11T06:17:59.819Z,71.38
2018-09-11T06:23:03.709Z,70.83
2018-09-11T06:28:07.395Z,70.71
2018-09-11T06:33:11.181Z,69.65
2018-09-11T06:38:15.596Z,68.55
2018-09-11T06:43:19.249Z,68.47
2018-09-11T06:48:22.869Z,67.46
2018-09-11T06:53:28.874Z,67.73
2018-09-11T06:58:32.368Z,67.83
2018-09-11T07:03:36.002Z,67.48
2018-09-11T07:08:39.775Z,67.07
2018-09-11T07:13:43.350Z,67.39
2018-09-11T07:18:47.126Z,67.63
2018-09-11T07:23:50.762Z,67.37
2018-09-11T07:28:54.339Z,66.36
2018-09-11T07:33:57.921Z,66.50
2018-09-11T07:39:01.495Z,65.73
2018-09-11T07:44:05.108Z,64.67
2018-09-11T07:49:08.782Z,64.96
2018-09-11T07:54:12.421Z,65.48
2018-09-11T07:59:15.929Z,64.82
2018-09-11T08:04:19.714Z,64.76
2018-09-11T08:09:23.263Z,64.96
2018-09-11T08:14:28.706Z,64.50
2018-09-11T08:19:32.348Z,63.83
2018-09-11T08:24:35.911Z,62.47
2018-09-11T08:29:39.477Z,62.08
2018-09-11T08:34:43.037Z,62.53
2018-09-11T08:39:46.610Z,61.70
2018-09-11T08:44:50.183Z,60.76
2018-09-11T08:49:53.690Z,61.13
2018-09-11T08:54:57.597Z,61.23
2018-09-11T09:00:01.199Z,60.63
2018-09-11T09:05:04.770Z,60.44
2018-09-11T09:10:08.342Z,60.58
2018-09-11T09:15:12.174Z,59.24
2018-09-11T09:20:15.714Z,58.86
2018-09-11T09:25:19.345Z,59.00
2018-09-11T09:30:31.066Z,58.23
2018-09-11T09:35:34.747Z,58.40
2018-09-11T09:40:38.323Z,58.12
2018-09-11T09:45:41.875Z,57.53
2018-09-11T09:50:45.442Z,57.31
2018-09-11T09:55:48.984Z,56.21
2018-09-11T10:01:01.686Z,54.97
2018-09-11T10:06:05.443Z,54.57
2018-09-11T10:11:09.083Z,54.61
2018-09-11T10:16:12.962Z,55.02
2018-09-11T10:21:16.556Z,54.07
2018-09-11T10:26:20.393Z,53.86
2018-09-11T10:31:24.286Z,53.80
2018-09-11T10:36:27.913Z,52.86
2018-09-11T10:41:31.604Z,53.55
2018-09-11T10:46:35.256Z,53.26
2018-09-11T10:51:39.230Z,53.55
2018-09-11T10:56:43.021Z,52.15
2018-09-11T11:01:46.866Z,52.12
2018-09-11T11:06:50.830Z,51.67
2018-09-11T11:11:54.537Z,50.92
2018-09-11T11:16:58.264Z,50.60
2018-09-11T11:22:01.990Z,51.31
2018-09-11T11:27:05.718Z,49.71
2018-09-11T11:32:09.434Z,49.70
2018-09-11T11:37:13.358Z,48.56
2018-09-11T11:42:17.035Z,47.87
2018-09-11T11:47:21.234Z,46.76
2018-09-11T11:52:24.829Z,47.22
2018-09-11T11:57:28.517Z,47.32
2018-09-11T12:02:32.283Z,47.03
2018-09-11T12:07:35.873Z,46.62
2018-09-11T12:12:39.599Z,46.38
2018-09-11T12:17:43.338Z,46.94
2018-09-11T12:22:47.072Z,46.52
2018-09-11T12:27:50.745Z,46.20
2018-09-11T12:32:54.302Z,46.49
2018-09-11T12:37:57.867Z,46.45
2018-09-11T12:43:01.504Z,45.82
2018-09-11T12:48:05.754Z,45.36
2018-09-11T12:53:09.060Z,45.59
2018-09-11T12:58:12.661Z,44.85
2018-09-11T13:03:16.510Z,45.14
2018-09-11T13:08:20.168Z,44.99
2018-09-11T13:13:23.716Z,44.04
2018-09-11T13:18:27.317Z,43.97
2018-09-11T13:23:31.052Z,43.96
2018-09-11T13:28:34.692Z,44.82
2018-09-11T13:33:38.241Z,44.17
2018-09-11T13:38:41.808Z,42.96
2018-09-11T13:43:45.373Z,42.86
2018-09-11T13:48:48.909Z,42.41
2018-09-11T13:53:54.791Z,42.48
2018-09-11T13:59:02.357Z,42.30
2018-09-11T14:04:06.163Z,40.54
2018-09-11T14:09:12.331Z,40.73
2018-09-11T14:14:16.254Z,41.26
2018-09-11T14:19:20.001Z,42.16
2018-09-11T14:24:23.900Z,40.03
2018-09-11T14:29:32.968Z,39.85
2018-09-11T14:34:36.604Z,40.42
2018-09-11T14:39:40.408Z,39.81
2018-09-11T14:44:44.080Z,40.54
2018-09-11T14:49:47.780Z,39.81
2018-09-11T14:54:51.483Z,40.41
2018-09-11T14:59:55.199Z,39.69
2018-09-11T15:04:58.916Z,39.66
2018-09-11T15:10:02.665Z,40.29
2018-09-11T15:15:06.318Z,40.74
2018-09-11T15:20:10.047Z,41.02
2018-09-11T15:25:13.697Z,40.97
2018-09-11T15:30:25.502Z,40.37
2018-09-11T15:35:29.062Z,41.33
2018-09-11T15:40:32.660Z,41.15
2018-09-11T15:45:36.433Z,41.58
2018-09-11T15:50:40.268Z,41.67
2018-09-11T15:55:44.000Z,42.14
2018-09-11T16:00:47.597Z,41.64
2018-09-11T16:05:51.370Z,41.83
2018-09-11T16:10:55.075Z,41.57
2018-09-11T16:15:58.659Z,41.86
2018-09-11T16:21:02.380Z,42.56
2018-09-11T16:26:06.021Z,42.08
2018-09-11T16:31:09.635Z,42.48
2018-09-11T16:36:13.279Z,42.98
2018-09-11T16:41:17.194Z,42.94
2018-09-11T16:46:20.915Z,42.66
2018-09-11T16:51:24.600Z,42.90
2018-09-11T16:56:28.124Z,42.33
2018-09-11T17:01:32.581Z,43.03
2018-09-11T17:06:36.266Z,43.27
2018-09-11T17:11:39.918Z,43.62
2018-09-11T17:16:43.694Z,43.56
2018-09-11T17:21:47.379Z,43.62
2018-09-11T17:26:51.092Z,44.31
2018-09-11T17:31:54.651Z,44.87
2018-09-11T17:36:58.403Z,44.95
2018-09-11T17:42:02.014Z,44.32
2018-09-11T17:47:07.166Z,45.15
2018-09-11T17:52:10.715Z,44.97
2018-09-11T17:57:14.491Z,45.02
2018-09-11T18:02:18.539Z,44.69
2018-09-11T18:07:22.830Z,44.99
2018-09-11T18:12:26.499Z,45.44
2018-09-11T18:17:29.998Z,45.88
2018-09-11T18:22:33.617Z,46.41
2018-09-11T18:27:37.533Z,48.15
2018-09-11T18:32:41.063Z,48.89
2018-09-11T18:37:44.705Z,49.65
2018-09-11T18:42:48.343Z,50.56
2018-09-11T18:47:51.972Z,49.49
2018-09-11T18:52:55.599Z,50.53
2018-09-11T18:57:59.389Z,49.84
2018-09-11T19:03:03.559Z,51.43
2018-09-11T19:08:07.405Z,51.51
2018-09-11T19:13:11.293Z,51.99
2018-09-11T19:18:15.060Z,52.40
2018-09-11T19:23:18.607Z,53.48
2018-09-11T19:28:22.345Z,53.77
2018-09-11T19:33:25.943Z,53.50
2018-09-11T19:38:29.480Z,54.02
2018-09-11T19:43:33.053Z,55.10
2018-09-11T19:48:36.628Z,54.99
2018-09-11T19:53:40.216Z,54.31
2018-09-11T19:58:43.822Z,54.80
2018-09-11T20:03:47.683Z,55.56
2018-09-11T20:08:51.307Z,55.90
2018-09-11T20:13:54.963Z,55.98
2018-09-11T20:18:58.540Z,55.50
2018-09-11T20:24:02.392Z,57.03
2018-09-11T20:29:05.979Z,57.52
2018-09-11T20:34:09.771Z,57.10
2018-09-11T20:39:13.696Z,57.77
2018-09-11T20:44:18.835Z,57.77
2018-09-11T20:49:22.406Z,56.92
2018-09-11T20:54:25.998Z,57.30
2018-09-11T20:59:29.566Z,57.61
2018-09-11T21:04:33.184Z,57.37
2018-09-11T21:09:37.030Z,57.49
2018-09-11T21:14:40.770Z,57.79
2018-09-11T21:19:44.377Z,58.24
2018-09-11T21:24:47.997Z,57.49
2018-09-11T21:29:51.535Z,57.48
2018-09-11T21:34:55.503Z,57.42
2018-09-11T21:39:59.268Z,58.62
2018-09-11T21:45:02.834Z,58.03
2018-09-11T21:50:06.580Z,59.15
2018-09-11T21:55:11.638Z,59.56
2018-09-11T22:00:16.093Z,60.40
2018-09-11T22:05:20.020Z,59.84
2018-09-11T22:10:23.619Z,60.11
2018-09-11T22:15:27.262Z,60.35
2018-09-11T22:20:30.937Z,61.02
2018-09-11T22:25:44.944Z,60.81
2018-09-11T22:30:48.675Z,61.21
2018-09-11T22:35:52.232Z,60.10
2018-09-11T22:40:55.825Z,58.41
2018-09-11T22:45:59.698Z,57.10
2018-09-11T22:51:03.354Z,56.21
2018-09-11T22:56:07.098Z,56.27
2018-09-11T23:01:10.714Z,55.81
2018-09-11T23:06:14.387Z,56.26
2018-09-11T23:11:18.076Z,55.70
2018-09-11T23:16:21.687Z,56.07
2018-09-11T23:21:25.317Z,56.09
2018-09-11T23:26:29.137Z,56.20
2018-09-11T23:31:32.931Z,56.53
2018-09-11T23:36:36.651Z,57.10
2018-09-11T23:41:40.348Z,57.53
2018-09-11T23:46:44.110Z,58.17
2018-09-11T23:51:47.777Z,58.16
2018-09-11T23:56:51.453Z,57.58
